North Center, New Jersey
Current Conditions -  °F | °C
As of 6:01 PM on Wednesday 26 Nov 2014 (Local Time) from KCDW Reporting Station
Light Rain Light Rain  
Wind Chill: 26°   Ceiling: 2800
Heat Index: 33°   Visibility: 5mi
Dew Point: 30°   Wind: 8mph
Humidity: 89%   Direction: 30°NNE
Pressure: 29.82"   Gusts: NA
Location:  40.8099°N, 74.187°W
Report Text: KCDW 262301Z 03007KT 5SM -RA BR FEW009 FEW023 OVC028 01/M01 A2982 RMK AO2 P0000 T00061011
Loading
Personal Weather Stations






























Interactive Weather Map New forecast layout! Learn more

10-Day Weather Forecast

Advertisements
Track Severe Weather on mobile